Deganwy, United Kingdom
Current Conditions -  °F | °C
As of 1:50 PM on Thursday 27 Nov 2014 (Local Time) from EGOV Reporting Station
Few Clouds Few Clouds  
Wind Chill: 50°   Ceiling: Unl
Heat Index: 50°   Visibility: 6mi
Dew Point: 39°   Wind: 8mph
Humidity: 66%   Direction: 140°SE
Pressure: 29.5"   Gusts: NA
Location:  53.3°N, 3.83°W
Report Text: EGOV 271350Z 14007KT 9999 FEW012 10/04 Q0999 BLU NOSIG
Loading
Personal Weather Stations






























Interactive Weather Map New forecast layout! Learn more

10-Day Weather Forecast

Advertisements
Track Severe Weather on mobile